createdAt,value
2019-02-15T00:02:00.053Z,3.17
2019-02-15T00:04:28.290Z,3.16
2019-02-15T00:06:56.634Z,3.17
2019-02-15T00:09:24.961Z,3.17
2019-02-15T00:11:53.245Z,3.16
2019-02-15T00:14:21.520Z,3.13
2019-02-15T00:16:50.577Z,3.12
2019-02-15T00:19:21.350Z,3.11
2019-02-15T00:21:50.075Z,3.13
2019-02-15T00:24:18.459Z,3.13
2019-02-15T00:26:46.704Z,3.12
2019-02-15T00:29:15.110Z,3.12
2019-02-15T00:31:43.445Z,3.14
2019-02-15T00:34:11.721Z,3.20
2019-02-15T00:36:40.018Z,3.23
2019-02-15T00:39:08.284Z,3.22
2019-02-15T00:41:36.576Z,3.22
2019-02-15T00:44:04.954Z,3.20
2019-02-15T00:46:37.568Z,3.20
2019-02-15T00:49:06.924Z,3.22
2019-02-15T00:51:45.776Z,3.25
2019-02-15T00:54:18.570Z,3.23
2019-02-15T00:56:49.222Z,3.25
2019-02-15T00:59:31.442Z,3.27
2019-02-15T01:02:10.444Z,3.24
2019-02-15T01:04:52.239Z,3.23
2019-02-15T01:07:24.905Z,3.21
2019-02-15T01:10:12.961Z,3.20
2019-02-15T01:12:49.082Z,3.19
2019-02-15T01:15:17.395Z,3.18
2019-02-15T01:17:45.690Z,3.17
2019-02-15T01:20:13.932Z,3.16
2019-02-15T01:22:44.326Z,3.15
2019-02-15T01:25:17.366Z,3.13
2019-02-15T01:27:47.263Z,3.11
2019-02-15T01:30:26.142Z,3.08
2019-02-15T01:32:56.073Z,3.10
2019-02-15T01:35:42.265Z,3.10
2019-02-15T01:38:18.167Z,3.12
2019-02-15T01:40:53.955Z,3.09
2019-02-15T01:43:40.209Z,3.07
2019-02-15T01:46:07.871Z,3.04
2019-02-15T01:48:36.126Z,3.06
2019-02-15T01:51:04.469Z,3.04
2019-02-15T01:53:32.756Z,3.02
2019-02-15T01:56:01.024Z,2.99
2019-02-15T01:58:29.336Z,3.00
2019-02-15T02:00:57.649Z,2.99
2019-02-15T02:03:25.948Z,2.99
2019-02-15T02:05:54.246Z,2.98
2019-02-15T02:08:26.594Z,2.98
2019-02-15T02:10:55.013Z,3.01
2019-02-15T02:13:23.288Z,3.05
2019-02-15T02:15:51.537Z,3.03
2019-02-15T02:18:19.833Z,3.04
2019-02-15T02:20:48.082Z,3.04
2019-02-15T02:23:16.326Z,3.05
2019-02-15T02:25:44.637Z,3.07
2019-02-15T02:28:12.919Z,3.06
2019-02-15T02:30:41.210Z,3.05
2019-02-15T02:33:09.476Z,3.04
2019-02-15T02:35:37.759Z,3.03
2019-02-15T02:38:06.064Z,3.05
2019-02-15T02:40:34.317Z,3.06
2019-02-15T02:43:02.629Z,3.09
2019-02-15T02:45:30.985Z,3.10
2019-02-15T02:47:59.337Z,3.12
2019-02-15T02:50:27.614Z,3.09
2019-02-15T02:52:55.906Z,3.05
2019-02-15T02:55:24.140Z,3.02
2019-02-15T02:57:52.445Z,3.02
2019-02-15T03:00:20.713Z,2.99
2019-02-15T03:02:48.991Z,2.99
2019-02-15T03:05:17.264Z,2.98
2019-02-15T03:07:48.224Z,2.98
2019-02-15T03:10:18.154Z,2.95
2019-02-15T03:12:46.473Z,2.93
2019-02-15T03:15:14.774Z,2.92
2019-02-15T03:17:43.289Z,2.87
2019-02-15T03:20:11.670Z,2.87
2019-02-15T03:22:40.069Z,2.86
2019-02-15T03:25:08.341Z,2.86
2019-02-15T03:27:36.604Z,2.83
2019-02-15T03:30:07.495Z,2.80
2019-02-15T03:32:35.833Z,2.75
2019-02-15T03:35:06.130Z,2.71
2019-02-15T03:37:48.174Z,2.69
2019-02-15T03:40:18.519Z,2.69
2019-02-15T03:42:47.558Z,2.65
2019-02-15T03:45:17.339Z,2.59
2019-02-15T03:47:45.630Z,2.56
2019-02-15T03:50:13.874Z,2.51
2019-02-15T03:52:42.211Z,2.48
2019-02-15T03:55:10.797Z,2.44
2019-02-15T03:57:39.062Z,2.41
2019-02-15T04:00:10.512Z,2.37
2019-02-15T04:02:38.785Z,2.34
2019-02-15T04:05:07.105Z,2.32
2019-02-15T04:07:35.369Z,2.30
2019-02-15T04:10:04.790Z,2.28
2019-02-15T04:12:33.094Z,2.24
2019-02-15T04:15:01.356Z,2.21
2019-02-15T04:17:29.639Z,2.18
2019-02-15T04:19:57.911Z,2.15
2019-02-15T04:22:26.186Z,2.13
2019-02-15T04:24:54.576Z,2.11
2019-02-15T04:27:22.842Z,2.11
2019-02-15T04:29:51.098Z,2.14
2019-02-15T04:32:20.184Z,2.14
2019-02-15T04:34:48.500Z,2.20
2019-02-15T04:37:17.314Z,2.19
2019-02-15T04:39:45.561Z,2.20
2019-02-15T04:42:13.840Z,2.20
2019-02-15T04:44:42.999Z,2.25
2019-02-15T04:47:12.389Z,2.29
2019-02-15T04:49:40.635Z,2.32
2019-02-15T04:52:08.889Z,2.35
2019-02-15T04:54:37.201Z,2.36
2019-02-15T04:57:05.460Z,2.38
2019-02-15T04:59:33.758Z,2.42
2019-02-15T05:02:02.035Z,2.43
2019-02-15T05:04:30.411Z,2.43
2019-02-15T05:06:58.660Z,2.42
2019-02-15T05:09:26.912Z,2.40
2019-02-15T05:11:55.209Z,2.40
2019-02-15T05:14:23.478Z,2.41
2019-02-15T05:16:51.791Z,2.41
2019-02-15T05:19:20.155Z,2.39
2019-02-15T05:21:48.913Z,2.39
2019-02-15T05:24:17.169Z,2.40
2019-02-15T05:26:45.504Z,2.39
2019-02-15T05:29:13.802Z,2.38
2019-02-15T05:31:42.042Z,2.36
2019-02-15T05:34:10.310Z,2.35
2019-02-15T05:36:38.548Z,2.35
2019-02-15T05:39:07.968Z,2.37
2019-02-15T05:41:36.224Z,2.36
2019-02-15T05:44:04.528Z,2.35
2019-02-15T05:46:32.859Z,2.33
2019-02-15T05:49:01.112Z,2.28
2019-02-15T05:51:29.433Z,2.24
2019-02-15T05:53:58.021Z,2.23
2019-02-15T05:56:26.554Z,2.21
2019-02-15T05:58:54.885Z,2.18
2019-02-15T06:01:24.885Z,2.14
2019-02-15T06:03:53.146Z,2.12
2019-02-15T06:06:21.388Z,2.11
2019-02-15T06:08:49.659Z,2.09
2019-02-15T06:11:17.917Z,2.08
2019-02-15T06:13:46.219Z,2.06
2019-02-15T06:16:14.474Z,2.07
2019-02-15T06:18:42.717Z,2.06
2019-02-15T06:21:11.029Z,2.08
2019-02-15T06:23:39.282Z,2.05
2019-02-15T06:26:10.559Z,2.02
2019-02-15T06:28:38.845Z,2.02
2019-02-15T06:31:07.086Z,2.06
2019-02-15T06:33:35.507Z,2.09
2019-02-15T06:36:03.814Z,2.12
2019-02-15T06:38:34.782Z,2.12
2019-02-15T06:41:02.100Z,2.10
2019-02-15T06:43:30.354Z,2.07
2019-02-15T06:45:58.638Z,2.06
2019-02-15T06:48:26.933Z,2.08
2019-02-15T06:50:55.190Z,2.13
2019-02-15T06:53:23.436Z,2.19
2019-02-15T06:55:51.755Z,2.22
2019-02-15T06:58:20.018Z,2.24
2019-02-15T07:00:49.911Z,2.25
2019-02-15T07:03:19.925Z,2.26
2019-02-15T07:05:48.175Z,2.28
2019-02-15T07:08:16.454Z,2.29
2019-02-15T07:10:44.841Z,2.31
2019-02-15T07:13:13.084Z,2.34
2019-02-15T07:15:41.379Z,2.32
2019-02-15T07:18:09.692Z,2.32
2019-02-15T07:20:37.947Z,2.30
2019-02-15T07:23:06.331Z,2.28
2019-02-15T07:25:34.704Z,2.24
2019-02-15T07:28:02.967Z,2.18
2019-02-15T07:30:31.240Z,2.16
2019-02-15T07:32:59.667Z,2.15
2019-02-15T07:35:27.871Z,2.16
2019-02-15T07:37:56.159Z,2.17
2019-02-15T07:40:24.436Z,2.16
2019-02-15T07:42:52.687Z,2.20
2019-02-15T07:45:22.672Z,2.24
2019-02-15T07:47:51.135Z,2.28
2019-02-15T07:50:19.418Z,2.35
2019-02-15T07:52:47.687Z,2.42
2019-02-15T07:55:15.966Z,2.52
2019-02-15T07:57:44.231Z,2.58
2019-02-15T08:00:14.387Z,2.64
2019-02-15T08:02:42.643Z,2.73
2019-02-15T08:05:11.317Z,2.81
2019-02-15T08:07:39.557Z,2.89
2019-02-15T08:10:10.045Z,2.96
2019-02-15T08:12:38.426Z,3.03
2019-02-15T08:15:09.039Z,3.09
2019-02-15T08:17:37.304Z,3.17
2019-02-15T08:20:09.014Z,3.25
2019-02-15T08:22:38.104Z,3.34
2019-02-15T08:25:06.593Z,3.42
2019-02-15T08:27:34.846Z,3.50
2019-02-15T08:30:03.923Z,3.56
2019-02-15T08:32:32.162Z,3.64
2019-02-15T08:35:00.447Z,3.77
2019-02-15T08:37:28.861Z,3.83
2019-02-15T08:39:57.110Z,3.87
2019-02-15T08:42:25.354Z,3.94
2019-02-15T08:44:53.622Z,4.02
2019-02-15T08:47:21.892Z,4.12
2019-02-15T08:49:50.310Z,4.18
2019-02-15T08:52:18.841Z,4.25
2019-02-15T08:54:47.133Z,4.31
2019-02-15T08:57:15.449Z,4.40
2019-02-15T08:59:43.712Z,4.49
2019-02-15T09:02:16.514Z,4.60
2019-02-15T09:04:44.781Z,4.67
2019-02-15T09:07:13.025Z,4.70
2019-02-15T09:09:41.304Z,4.84
2019-02-15T09:12:09.554Z,4.84
2019-02-15T09:14:37.886Z,4.98
2019-02-15T09:17:06.126Z,5.08
2019-02-15T09:19:34.403Z,5.20
2019-02-15T09:22:02.775Z,5.31
2019-02-15T09:24:31.056Z,5.40
2019-02-15T09:27:00.979Z,5.50
2019-02-15T09:29:29.272Z,5.60
2019-02-15T09:31:57.677Z,5.60
2019-02-15T09:34:25.917Z,5.81
2019-02-15T09:36:54.155Z,5.93
2019-02-15T09:39:22.452Z,6.01
2019-02-15T09:41:50.695Z,6.01
2019-02-15T09:44:19.037Z,6.17
2019-02-15T09:46:47.276Z,6.17
2019-02-15T09:49:15.540Z,6.31
2019-02-15T09:51:43.815Z,6.43
2019-02-15T09:54:12.059Z,6.56
2019-02-15T09:56:40.454Z,6.65
2019-02-15T09:59:08.729Z,6.75
2019-02-15T10:01:36.963Z,6.84
2019-02-15T10:04:05.300Z,6.92
2019-02-15T10:06:33.538Z,7.02
2019-02-15T10:09:01.842Z,7.15
2019-02-15T10:11:30.143Z,7.27
2019-02-15T10:13:58.521Z,7.42
2019-02-15T10:16:29.784Z,7.54
2019-02-15T10:18:56.738Z,7.70
2019-02-15T10:21:25.038Z,7.83
2019-02-15T10:23:53.283Z,8.02
2019-02-15T10:26:21.519Z,8.20
2019-02-15T10:28:49.909Z,8.40
2019-02-15T10:31:18.181Z,8.63
2019-02-15T10:33:46.434Z,8.79
2019-02-15T10:36:14.717Z,8.94
2019-02-15T10:38:43.032Z,9.12
2019-02-15T10:41:11.329Z,9.34
2019-02-15T10:43:39.576Z,9.51
2019-02-15T10:46:07.866Z,9.68
2019-02-15T10:48:36.144Z,9.86
2019-02-15T10:51:04.529Z,10.04
2019-02-15T10:53:32.812Z,10.22
2019-02-15T10:56:01.069Z,10.39
2019-02-15T10:58:29.439Z,10.50
2019-02-15T11:00:57.683Z,10.59
2019-02-15T11:03:25.971Z,10.70
2019-02-15T11:05:54.302Z,10.85
2019-02-15T11:08:22.600Z,10.94
2019-02-15T11:10:50.877Z,11.04
2019-02-15T11:13:19.140Z,11.15
2019-02-15T11:15:47.528Z,11.26
2019-02-15T11:18:15.779Z,11.40
2019-02-15T11:20:44.026Z,11.55
2019-02-15T11:23:12.419Z,11.71
2019-02-15T11:25:40.666Z,11.77
2019-02-15T11:28:08.920Z,11.80
2019-02-15T11:30:37.217Z,11.85
2019-02-15T11:33:05.472Z,11.94
2019-02-15T11:35:33.756Z,12.03
2019-02-15T11:38:02.129Z,12.10
2019-02-15T11:40:30.391Z,12.10
2019-02-15T11:42:58.788Z,12.16
2019-02-15T11:45:27.043Z,12.20
2019-02-15T11:47:55.322Z,12.30
2019-02-15T11:50:23.569Z,12.34
2019-02-15T11:52:51.828Z,12.42
2019-02-15T11:55:20.138Z,12.53
2019-02-15T11:57:48.338Z,12.59
2019-02-15T12:00:31.015Z,12.69
2019-02-15T12:02:59.440Z,12.71
2019-02-15T12:05:27.796Z,12.68
2019-02-15T12:07:56.094Z,12.62
2019-02-15T12:10:24.334Z,12.59
2019-02-15T12:12:52.756Z,12.49
2019-02-15T12:15:21.045Z,12.46
2019-02-15T12:17:49.310Z,12.40
2019-02-15T12:20:17.716Z,12.42
2019-02-15T12:22:45.998Z,12.48
2019-02-15T12:25:14.275Z,12.52
2019-02-15T12:27:42.572Z,12.55
2019-02-15T12:30:12.783Z,12.55
2019-02-15T12:32:41.028Z,12.55
2019-02-15T12:35:10.436Z,12.54
2019-02-15T12:37:38.726Z,12.52
2019-02-15T12:40:08.824Z,12.51
2019-02-15T12:42:37.083Z,12.52
2019-02-15T12:45:08.191Z,12.54
2019-02-15T12:47:36.536Z,12.56
2019-02-15T12:50:08.359Z,12.60
2019-02-15T12:52:36.658Z,12.65
2019-02-15T12:55:05.068Z,12.68
2019-02-15T12:57:33.302Z,12.73
2019-02-15T13:00:01.584Z,12.75
2019-02-15T13:02:30.009Z,12.75
2019-02-15T13:04:58.302Z,12.77
2019-02-15T13:07:26.544Z,12.79
2019-02-15T13:09:55.752Z,12.81
2019-02-15T13:12:24.052Z,12.81
2019-02-15T13:14:52.349Z,12.84
2019-02-15T13:17:24.806Z,12.87
2019-02-15T13:19:50.674Z,12.91
2019-02-15T13:22:20.176Z,12.94
2019-02-15T13:24:48.603Z,12.99
2019-02-15T13:27:16.957Z,13.01
2019-02-15T13:29:45.963Z,13.04
2019-02-15T13:32:14.223Z,13.06
2019-02-15T13:34:42.503Z,13.10
2019-02-15T13:37:10.801Z,13.11
2019-02-15T13:39:39.068Z,13.13
2019-02-15T13:42:07.376Z,13.17
2019-02-15T13:44:35.659Z,13.20
2019-02-15T13:47:03.939Z,13.27
2019-02-15T13:49:32.193Z,13.32
2019-02-15T13:52:00.633Z,13.39
2019-02-15T13:54:29.378Z,13.44
2019-02-15T13:56:57.626Z,13.49
2019-02-15T13:59:26.050Z,13.56
2019-02-15T14:01:54.318Z,13.60
2019-02-15T14:04:22.562Z,13.67
2019-02-15T14:06:54.490Z,13.75
2019-02-15T14:09:23.011Z,13.83
2019-02-15T14:11:51.263Z,13.89
2019-02-15T14:14:19.518Z,13.96
2019-02-15T14:16:48.255Z,14.02
2019-02-15T14:19:16.552Z,14.09
2019-02-15T14:21:44.950Z,14.18
2019-02-15T14:24:13.198Z,14.29
2019-02-15T14:26:41.469Z,14.39
2019-02-15T14:29:09.789Z,14.48
2019-02-15T14:31:38.084Z,14.62
2019-02-15T14:34:06.328Z,14.76
2019-02-15T14:36:34.630Z,14.93
2019-02-15T14:39:04.534Z,15.08
2019-02-15T14:41:32.812Z,15.27
2019-02-15T14:44:01.047Z,15.45
2019-02-15T14:46:29.428Z,15.63
2019-02-15T14:48:57.851Z,15.75
2019-02-15T14:51:26.119Z,15.85
2019-02-15T14:53:54.403Z,15.89
2019-02-15T14:56:22.702Z,15.93
2019-02-15T14:58:51.016Z,15.97
2019-02-15T15:01:19.304Z,16.05
2019-02-15T15:03:47.646Z,16.08
2019-02-15T15:06:15.952Z,16.11
2019-02-15T15:08:44.212Z,16.05
2019-02-15T15:11:12.508Z,15.94
2019-02-15T15:13:40.931Z,15.81
2019-02-15T15:16:09.214Z,15.65
2019-02-15T15:18:37.526Z,15.46
2019-02-15T15:21:05.789Z,15.30
2019-02-15T15:23:34.085Z,15.15
2019-02-15T15:26:11.362Z,15.01
2019-02-15T15:28:32.445Z,14.85
2019-02-15T15:31:00.709Z,14.69
2019-02-15T15:33:29.011Z,14.56
2019-02-15T15:35:57.260Z,14.45
2019-02-15T15:38:25.579Z,14.36
2019-02-15T15:40:53.848Z,14.29
2019-02-15T15:43:22.225Z,14.20
2019-02-15T15:45:50.494Z,14.13
2019-02-15T15:48:22.663Z,14.07
2019-02-15T15:50:48.755Z,13.98
2019-02-15T15:53:17.001Z,13.92
2019-02-15T15:55:45.321Z,13.80
2019-02-15T15:58:13.642Z,13.74
2019-02-15T16:00:42.088Z,13.66
2019-02-15T16:03:10.356Z,13.61
2019-02-15T16:05:38.601Z,13.56
2019-02-15T16:08:06.928Z,13.51
2019-02-15T16:10:35.220Z,13.45
2019-02-15T16:13:03.472Z,13.39
2019-02-15T16:15:31.723Z,13.33
2019-02-15T16:18:00.101Z,13.26
2019-02-15T16:20:28.349Z,13.19
2019-02-15T16:22:57.215Z,13.13
2019-02-15T16:25:25.490Z,13.07
2019-02-15T16:27:53.753Z,13.02
2019-02-15T16:30:22.754Z,12.97
2019-02-15T16:32:50.999Z,12.89
2019-02-15T16:35:19.273Z,12.78
2019-02-15T16:37:47.643Z,12.69
2019-02-15T16:40:16.272Z,12.61
2019-02-15T16:42:44.508Z,12.52
2019-02-15T16:45:14.217Z,12.42
2019-02-15T16:47:42.464Z,12.33
2019-02-15T16:50:10.857Z,12.22
2019-02-15T16:52:39.204Z,12.14
2019-02-15T16:55:12.674Z,12.07
2019-02-15T16:57:38.765Z,12.00
2019-02-15T17:00:09.739Z,11.93
2019-02-15T17:02:37.996Z,11.84
2019-02-15T17:05:07.504Z,11.74
2019-02-15T17:07:35.914Z,11.64
2019-02-15T17:10:06.506Z,11.55
2019-02-15T17:12:34.787Z,11.48
2019-02-15T17:15:03.051Z,11.39
2019-02-15T17:17:31.326Z,11.31
2019-02-15T17:19:59.593Z,11.24
2019-02-15T17:22:27.852Z,11.15
2019-02-15T17:24:56.112Z,11.08
2019-02-15T17:27:24.363Z,10.98
2019-02-15T17:29:52.630Z,10.88
2019-02-15T17:32:20.929Z,10.78
2019-02-15T17:34:49.222Z,10.72
2019-02-15T17:37:18.058Z,10.66
2019-02-15T17:39:46.413Z,10.58
2019-02-15T17:42:14.677Z,10.51
2019-02-15T17:44:42.927Z,10.45
2019-02-15T17:47:11.315Z,10.39
2019-02-15T17:49:39.558Z,10.35
2019-02-15T17:52:07.800Z,10.29
2019-02-15T17:54:36.095Z,10.26
2019-02-15T17:57:04.362Z,10.21
2019-02-15T17:59:32.647Z,10.18
2019-02-15T18:02:00.966Z,10.14
2019-02-15T18:04:29.243Z,10.10
2019-02-15T18:06:57.618Z,10.08
2019-02-15T18:09:25.898Z,10.03
2019-02-15T18:11:54.145Z,10.01
2019-02-15T18:14:22.412Z,9.99
2019-02-15T18:16:50.686Z,9.96
2019-02-15T18:19:18.963Z,9.97
2019-02-15T18:21:47.240Z,9.97
2019-02-15T18:24:15.509Z,9.95
2019-02-15T18:26:43.757Z,9.92
2019-02-15T18:29:12.058Z,9.92
2019-02-15T18:31:40.441Z,9.88
2019-02-15T18:34:08.734Z,9.84
2019-02-15T18:36:37.004Z,9.79
2019-02-15T18:39:06.731Z,9.70
2019-02-15T18:41:35.084Z,9.63
2019-02-15T18:44:03.334Z,9.59
2019-02-15T18:46:31.628Z,9.57
2019-02-15T18:49:00.564Z,9.55
2019-02-15T18:51:29.154Z,9.52
2019-02-15T18:53:57.470Z,9.47
2019-02-15T18:56:25.713Z,9.42
2019-02-15T18:58:54.044Z,9.36
2019-02-15T19:01:22.444Z,9.33
2019-02-15T19:03:50.737Z,9.27
2019-02-15T19:06:19.269Z,9.20
2019-02-15T19:08:48.136Z,9.13
2019-02-15T19:11:16.369Z,9.07
2019-02-15T19:13:44.643Z,9.01
2019-02-15T19:16:12.914Z,8.95
2019-02-15T19:18:41.151Z,8.90
2019-02-15T19:21:09.538Z,8.85
2019-02-15T19:23:37.819Z,8.81
2019-02-15T19:26:06.056Z,8.78
2019-02-15T19:28:34.646Z,8.77
2019-02-15T19:31:03.598Z,8.74
2019-02-15T19:33:31.843Z,8.72
2019-02-15T19:36:00.327Z,8.72
2019-02-15T19:38:28.677Z,8.69
2019-02-15T19:40:57.225Z,8.66
2019-02-15T19:43:25.570Z,8.63
2019-02-15T19:45:54.180Z,8.55
2019-02-15T19:48:22.464Z,8.49
2019-02-15T19:50:50.758Z,8.44
2019-02-15T19:53:19.389Z,8.38
2019-02-15T19:55:47.755Z,8.36
2019-02-15T19:58:16.269Z,8.32
2019-02-15T20:00:44.950Z,8.29
2019-02-15T20:03:15.150Z,8.22
2019-02-15T20:05:43.466Z,8.19
2019-02-15T20:08:11.725Z,8.15
2019-02-15T20:10:40.420Z,8.11
2019-02-15T20:13:08.800Z,8.04
2019-02-15T20:15:37.041Z,7.98
2019-02-15T20:18:05.349Z,7.94
2019-02-15T20:20:34.107Z,7.89
2019-02-15T20:23:02.782Z,7.83
2019-02-15T20:25:31.109Z,7.76
2019-02-15T20:27:59.337Z,7.70
2019-02-15T20:30:27.945Z,7.62
2019-02-15T20:32:56.201Z,7.56
2019-02-15T20:35:24.849Z,7.53
2019-02-15T20:37:53.549Z,7.49
2019-02-15T20:40:21.986Z,7.47
2019-02-15T20:42:50.237Z,7.44
2019-02-15T20:45:21.437Z,7.40
2019-02-15T20:47:50.105Z,7.38
2019-02-15T20:50:19.134Z,7.38
2019-02-15T20:52:47.401Z,7.37
2019-02-15T20:55:18.319Z,7.36
2019-02-15T20:57:46.696Z,7.34
2019-02-15T21:00:26.113Z,7.32
2019-02-15T21:02:54.568Z,7.30
2019-02-15T21:05:24.030Z,7.27
2019-02-15T21:07:52.830Z,7.25
2019-02-15T21:10:21.193Z,7.20
2019-02-15T21:12:49.450Z,7.16
2019-02-15T21:15:17.827Z,7.14
2019-02-15T21:17:46.205Z,7.13
2019-02-15T21:20:15.256Z,7.12
2019-02-15T21:22:43.518Z,7.09
2019-02-15T21:25:16.375Z,7.05
2019-02-15T21:27:44.651Z,7.03
2019-02-15T21:30:15.549Z,7.01
2019-02-15T21:32:43.917Z,6.99
2019-02-15T21:35:12.169Z,6.99
2019-02-15T21:37:40.423Z,6.99
2019-02-15T21:40:12.002Z,6.98
2019-02-15T21:42:40.273Z,6.97
2019-02-15T21:45:10.591Z,6.95
2019-02-15T21:47:38.870Z,6.96
2019-02-15T21:50:16.781Z,6.96
2019-02-15T21:52:44.133Z,6.96
2019-02-15T21:55:16.415Z,6.95
2019-02-15T21:57:44.714Z,6.92
2019-02-15T22:00:21.937Z,6.88
2019-02-15T22:02:50.248Z,6.87
2019-02-15T22:05:18.514Z,6.88
2019-02-15T22:07:46.776Z,6.89
2019-02-15T22:10:15.114Z,6.89
2019-02-15T22:12:43.387Z,6.88
2019-02-15T22:15:13.093Z,6.87
2019-02-15T22:17:41.473Z,6.85
2019-02-15T22:20:14.007Z,6.82
2019-02-15T22:22:42.276Z,6.82
2019-02-15T22:25:10.538Z,6.83
2019-02-15T22:27:39.617Z,6.86
2019-02-15T22:30:13.340Z,6.85
2019-02-15T22:32:42.612Z,6.85
2019-02-15T22:35:12.087Z,6.82
2019-02-15T22:37:40.461Z,6.76
2019-02-15T22:40:31.865Z,6.70
2019-02-15T22:43:05.904Z,6.70
2019-02-15T22:45:34.157Z,6.68
2019-02-15T22:48:02.445Z,6.65
2019-02-15T22:50:35.947Z,6.60
2019-02-15T22:53:00.738Z,6.58
2019-02-15T22:55:29.018Z,6.52
2019-02-15T22:57:57.291Z,6.44
2019-02-15T23:00:30.487Z,6.36
2019-02-15T23:02:58.805Z,6.29
2019-02-15T23:05:27.114Z,6.22
2019-02-15T23:07:55.433Z,6.17
2019-02-15T23:10:23.723Z,6.16
2019-02-15T23:12:54.477Z,6.14
2019-02-15T23:15:24.811Z,6.08
2019-02-15T23:17:52.806Z,6.09
2019-02-15T23:20:21.057Z,6.09
2019-02-15T23:22:49.306Z,6.09
2019-02-15T23:25:18.825Z,6.07
2019-02-15T23:27:47.280Z,6.02
2019-02-15T23:30:15.587Z,6.02
2019-02-15T23:32:43.936Z,5.97
2019-02-15T23:35:12.257Z,5.95
2019-02-15T23:37:40.515Z,5.79
2019-02-15T23:40:08.826Z,5.79
2019-02-15T23:42:37.176Z,5.78
2019-02-15T23:45:06.412Z,5.68
2019-02-15T23:47:36.147Z,5.67
2019-02-15T23:50:05.785Z,5.60
2019-02-15T23:52:34.084Z,5.64
2019-02-15T23:55:02.373Z,5.60
2019-02-15T23:57:30.675Z,5.57
2019-02-15T23:59:58.922Z,5.56
